Time;durP1;ratioP1;P1;durP2;ratioP2;P2;SDS_P1;SDS_P2;PMS_P1;PMS_P2;Temp;Humidity;BMP_temperature;BMP_pressure;BME280_temperature;BME280_humidity;BME280_pressure;Samples;Min_cycle;Max_cycle;Signal;HPM_P1;HPM_P2
2024/01/17 00:01:42;;;;;;;4.60;4.30;;;;;;;-146.42;100.00;61981.06;4976244;28;20659;-65
2024/01/17 00:04:08;;;;;;;0.50;0.50;;;;;;;-146.42;100.00;61981.06;4976057;28;20271;-65
2024/01/17 00:06:33;;;;;;;9.93;2.13;;;;;;;-146.42;100.00;61981.06;4993512;28;20248;-65
2024/01/17 00:08:59;;;;;;;0.73;0.73;;;;;;;-146.42;100.00;61981.06;4993403;28;20180;-65
2024/01/17 00:11:24;;;;;;;0.60;0.60;;;;;;;-146.42;100.00;61981.06;4981118;28;20654;-65
2024/01/17 00:13:50;;;;;;;3.00;2.70;;;;;;;-146.42;100.00;61981.06;4954766;28;20177;-66
2024/01/17 00:16:22;;;;;;;1.63;1.63;;;;;;;-146.42;100.00;61981.06;4954775;28;20181;-65
2024/01/17 00:18:48;;;;;;;1.57;1.50;;;;;;;-146.42;100.00;61981.06;4954720;28;20388;-65
2024/01/17 00:21:14;;;;;;;0.60;0.60;;;;;;;-146.42;100.00;61981.06;4953386;29;20194;-65
2024/01/17 00:23:39;;;;;;;0.50;0.50;;;;;;;-146.42;100.00;61981.06;4954488;28;20178;-65
2024/01/17 00:26:05;;;;;;;1.27;1.27;;;;;;;-146.42;100.00;61981.06;4954496;28;20234;-65
2024/01/17 00:28:31;;;;;;;0.83;0.83;;;;;;;-146.42;100.00;61981.06;4954457;28;20182;-65
2024/01/17 00:30:57;;;;;;;1.37;1.37;;;;;;;-146.42;100.00;61981.06;4954515;28;20246;-65
2024/01/17 00:33:23;;;;;;;1.43;1.43;;;;;;;-146.42;100.00;61981.06;4954587;28;20182;-65
2024/01/17 00:35:48;;;;;;;0.90;0.90;;;;;;;-146.42;100.00;61981.06;4954360;28;20244;-65
2024/01/17 00:38:16;;;;;;;0.60;0.60;;;;;;;-146.42;100.00;61981.06;4954150;28;20170;-66
2024/01/17 00:40:42;;;;;;;1.53;1.43;;;;;;;-146.42;100.00;61981.06;4954358;28;20257;-65
2024/01/17 00:43:07;;;;;;;2.00;1.90;;;;;;;-146.42;100.00;61981.06;4954168;28;20269;-66
2024/01/17 00:45:33;;;;;;;0.67;0.67;;;;;;;-146.42;100.00;61981.06;4954162;28;20210;-66
2024/01/17 00:47:58;;;;;;;12.20;11.17;;;;;;;-146.42;100.00;61981.06;4954037;28;20183;-66
2024/01/17 00:50:24;;;;;;;0.67;0.67;;;;;;;-146.42;100.00;61981.06;4954006;28;20189;-66
2024/01/17 00:52:49;;;;;;;1.30;1.30;;;;;;;-146.42;100.00;61981.06;4953971;28;20662;-66
2024/01/17 00:55:15;;;;;;;0.83;0.83;;;;;;;-146.42;100.00;61981.06;4953946;28;20175;-65
2024/01/17 00:57:40;;;;;;;1.90;1.87;;;;;;;-146.42;100.00;61981.06;4953763;28;20301;-65
2024/01/17 01:00:07;;;;;;;0.60;0.60;;;;;;;-146.42;100.00;61981.06;4953862;28;20660;-65
2024/01/17 01:02:33;;;;;;;0.70;0.70;;;;;;;-146.42;100.00;61981.06;4953882;28;20225;-65
2024/01/17 01:04:59;;;;;;;0.80;0.80;;;;;;;-146.42;100.00;61981.06;4953776;28;20620;-65
2024/01/17 01:07:24;;;;;;;0.60;0.60;;;;;;;-146.42;100.00;61981.06;4953860;28;20174;-65
2024/01/17 01:09:50;;;;;;;0.70;0.70;;;;;;;-146.42;100.00;61981.06;4953764;28;20163;-65
2024/01/17 01:12:15;;;;;;;6.90;4.30;;;;;;;-146.42;100.00;61981.06;4987113;28;20181;-64
2024/01/17 01:14:41;;;;;;;1.80;1.73;;;;;;;-146.42;100.00;61981.06;4992390;28;20180;-66
2024/01/17 01:17:07;;;;;;;1.80;1.70;;;;;;;-146.42;100.00;61981.06;4992552;28;20181;-65
2024/01/17 01:19:32;;;;;;;11.67;10.80;;;;;;;-146.42;100.00;61981.06;4992190;28;20181;-65
2024/01/17 01:21:58;;;;;;;6.93;6.53;;;;;;;-146.42;100.00;61981.06;4992151;28;20173;-65
2024/01/17 01:24:23;;;;;;;1.37;1.37;;;;;;;-146.42;100.00;61981.06;4992069;28;20197;-65
2024/01/17 01:26:49;;;;;;;4.00;3.80;;;;;;;-146.42;100.00;61981.06;4992020;28;20200;-65
2024/01/17 01:29:14;;;;;;;0.50;0.50;;;;;;;-146.42;100.00;61981.06;4992052;28;20183;-65
2024/01/17 01:31:40;;;;;;;1.57;1.47;;;;;;;-146.42;100.00;61981.06;4991934;28;20184;-64
2024/01/17 01:34:05;;;;;;;0.50;0.50;;;;;;;-146.42;100.00;61981.06;4991810;28;20180;-64
2024/01/17 01:36:31;;;;;;;0.57;0.57;;;;;;;-146.42;100.00;61981.06;4991879;28;20184;-65
2024/01/17 01:38:56;;;;;;;0.87;0.87;;;;;;;-146.42;100.00;61981.06;4991838;28;20173;-64
2024/01/17 01:41:22;;;;;;;0.70;0.70;;;;;;;-146.42;100.00;61981.06;4991918;28;20200;-64
2024/01/17 01:43:47;;;;;;;0.60;0.60;;;;;;;-146.42;100.00;61981.06;4991761;28;20184;-64
2024/01/17 01:46:17;;;;;;;36.57;32.77;;;;;;;-146.42;100.00;61981.06;4991710;28;20176;-65
2024/01/17 01:48:43;;;;;;;0.60;0.60;;;;;;;-146.42;100.00;61981.06;4991336;28;20184;-65
2024/01/17 01:51:12;;;;;;;2.40;2.30;;;;;;;-146.42;100.00;61981.06;4991626;28;20180;-64
2024/01/17 01:53:39;;;;;;;0.77;0.77;;;;;;;-146.42;100.00;61981.06;4991655;28;20169;-65
2024/01/17 01:56:06;;;;;;;5.50;5.13;;;;;;;-146.42;100.00;61981.06;4991530;28;20177;-65
2024/01/17 01:58:35;;;;;;;0.67;0.67;;;;;;;-146.42;100.00;61981.06;4991337;28;20255;-65
2024/01/17 02:01:01;;;;;;;8.30;7.80;;;;;;;-146.42;100.00;61981.06;4991448;28;20180;-65
2024/01/17 02:03:28;;;;;;;1.13;1.13;;;;;;;-146.42;100.00;61981.06;4991443;28;20177;-65
2024/01/17 02:05:54;;;;;;;0.60;0.60;;;;;;;-146.42;100.00;61981.06;4991407;28;20236;-64
2024/01/17 02:08:19;;;;;;;0.60;0.60;;;;;;;-146.42;100.00;61981.06;4991405;28;20211;-64
2024/01/17 02:10:45;;;;;;;0.60;0.60;;;;;;;-146.42;100.00;61981.06;4991327;28;20188;-65
2024/01/17 02:13:10;;;;;;;0.90;0.90;;;;;;;-146.42;100.00;61981.06;4991314;28;20260;-65
2024/01/17 02:15:36;;;;;;;6.73;6.43;;;;;;;-146.42;100.00;61981.06;4991268;28;20177;-65
2024/01/17 02:18:02;;;;;;;0.60;0.60;;;;;;;-146.42;100.00;61981.06;4991465;28;20185;-66
2024/01/17 02:20:28;;;;;;;0.60;0.60;;;;;;;-146.42;100.00;61981.06;4991405;28;20185;-65
2024/01/17 02:22:53;;;;;;;0.50;0.50;;;;;;;-146.42;100.00;61981.06;4991241;28;20169;-66
2024/01/17 02:25:19;;;;;;;0.60;0.60;;;;;;;-146.42;100.00;61981.06;4991062;28;20258;-66
2024/01/17 02:27:44;;;;;;;0.70;0.70;;;;;;;-146.42;100.00;61981.06;4991131;28;20177;-65
2024/01/17 02:30:12;;;;;;;0.70;0.70;;;;;;;-146.42;100.00;61981.06;4991080;28;20173;-65
2024/01/17 02:32:37;;;;;;;1.60;1.53;;;;;;;-146.42;100.00;61981.06;4991032;28;20234;-65
2024/01/17 02:35:03;;;;;;;1.17;1.17;;;;;;;-146.42;100.00;61981.06;4991003;28;20203;-65
2024/01/17 02:37:29;;;;;;;0.50;0.50;;;;;;;-146.42;100.00;61981.06;4991155;28;20184;-65
2024/01/17 02:39:55;;;;;;;0.50;0.50;;;;;;;-146.42;100.00;61981.06;4991046;28;20177;-65
2024/01/17 02:42:20;;;;;;;0.50;0.50;;;;;;;-146.42;100.00;61981.06;4991063;28;20180;-65
2024/01/17 02:44:46;;;;;;;0.67;0.67;;;;;;;-146.42;100.00;61981.06;4973462;28;20212;-65
2024/01/17 02:47:12;;;;;;;0.50;0.50;;;;;;;-146.42;100.00;61981.06;4991044;28;20177;-65
2024/01/17 02:49:37;;;;;;;0.50;0.50;;;;;;;-146.42;100.00;61981.06;4990993;28;20188;-66
2024/01/17 02:52:03;;;;;;;8.03;7.40;;;;;;;-146.42;100.00;61981.06;4990908;28;20180;-65
2024/01/17 02:54:29;;;;;;;0.50;0.50;;;;;;;-146.42;100.00;61981.06;4990864;28;20263;-65
2024/01/17 02:56:55;;;;;;;17.53;16.63;;;;;;;-146.42;100.00;61981.06;4990885;28;20228;-65
2024/01/17 02:59:22;;;;;;;1.10;1.10;;;;;;;-146.42;100.00;61981.06;4990946;28;20173;-65
2024/01/17 03:01:48;;;;;;;0.50;0.50;;;;;;;-146.42;100.00;61981.06;4993977;28;20188;-65
2024/01/17 03:04:13;;;;;;;0.50;0.50;;;;;;;-146.42;100.00;61981.06;4994855;28;20193;-65
2024/01/17 03:06:39;;;;;;;0.60;0.60;;;;;;;-146.42;100.00;61981.06;4994757;28;20298;-65
2024/01/17 03:09:04;;;;;;;0.50;0.50;;;;;;;-146.42;100.00;61981.06;4994768;28;20618;-65
2024/01/17 03:11:30;;;;;;;0.60;0.60;;;;;;;-146.42;100.00;61981.06;4994572;28;20183;-65
2024/01/17 03:13:56;;;;;;;0.60;0.60;;;;;;;-146.42;100.00;61981.06;4994550;28;20169;-65
2024/01/17 03:16:21;;;;;;;0.50;0.50;;;;;;;-146.42;100.00;61981.06;4994554;28;20208;-65
2024/01/17 03:18:47;;;;;;;0.80;0.80;;;;;;;-146.42;100.00;61981.06;4994502;28;20200;-65
2024/01/17 03:21:13;;;;;;;0.60;0.60;;;;;;;-146.42;100.00;61981.06;4994368;28;20188;-65
2024/01/17 03:23:39;;;;;;;0.53;0.53;;;;;;;-146.42;100.00;61981.06;4994122;28;20173;-65
2024/01/17 03:26:05;;;;;;;0.70;0.70;;;;;;;-146.42;100.00;61981.06;4994256;28;20713;-65
2024/01/17 03:28:30;;;;;;;0.67;0.67;;;;;;;-146.42;100.00;61981.06;4994265;28;20538;-65
2024/01/17 03:30:55;;;;;;;2.73;2.63;;;;;;;-146.42;100.00;61981.06;4994261;28;20200;-65
2024/01/17 03:33:21;;;;;;;0.70;0.70;;;;;;;-146.42;100.00;61981.06;4994318;28;20264;-65
2024/01/17 03:35:46;;;;;;;0.60;0.60;;;;;;;-146.42;100.00;61981.06;4994035;28;20236;-65
2024/01/17 03:38:12;;;;;;;1.77;1.63;;;;;;;-146.42;100.00;61981.06;4994084;28;20260;-66
2024/01/17 03:40:37;;;;;;;8.60;7.97;;;;;;;-146.42;100.00;61981.06;4994184;28;20256;-65
2024/01/17 03:43:03;;;;;;;0.70;0.70;;;;;;;-146.42;100.00;61981.06;4994018;28;20185;-65
2024/01/17 03:45:28;;;;;;;2.67;2.57;;;;;;;-146.42;100.00;61981.06;4993798;28;20235;-65
2024/01/17 03:47:54;;;;;;;2.43;2.33;;;;;;;-146.42;100.00;61981.06;4993828;28;20200;-65
2024/01/17 03:50:19;;;;;;;0.70;0.70;;;;;;;-146.42;100.00;61981.06;4993822;28;20264;-65
2024/01/17 03:52:45;;;;;;;0.73;0.73;;;;;;;-146.42;100.00;61981.06;4993826;28;20188;-65
2024/01/17 03:55:10;;;;;;;4.13;3.50;;;;;;;-146.42;100.00;61981.06;4993759;28;20184;-65
2024/01/17 03:57:36;;;;;;;0.50;0.50;;;;;;;-146.42;100.00;61981.06;4993573;28;20689;-65
2024/01/17 04:00:04;;;;;;;0.80;0.80;;;;;;;-146.42;100.00;61981.06;4993720;28;20616;-65
2024/01/17 04:02:29;;;;;;;0.60;0.60;;;;;;;-146.42;100.00;61981.06;4993737;28;20185;-65
2024/01/17 04:04:55;;;;;;;0.50;0.50;;;;;;;-146.42;100.00;61981.06;4994069;28;20647;-65
2024/01/17 04:07:22;;;;;;;0.50;0.50;;;;;;;-146.42;100.00;61981.06;4994196;28;20231;-65
2024/01/17 04:09:47;;;;;;;1.70;1.33;;;;;;;-146.42;100.00;61981.06;4993825;28;20196;-65
2024/01/17 04:12:13;;;;;;;0.60;0.60;;;;;;;-146.42;100.00;61981.06;4993558;28;20177;-65
2024/01/17 04:14:39;;;;;;;10.77;8.83;;;;;;;-146.42;100.00;61981.06;4993668;28;20180;-65
2024/01/17 04:17:04;;;;;;;0.97;0.97;;;;;;;-146.42;100.00;61981.06;4993377;28;20196;-64
2024/01/17 04:19:29;;;;;;;0.57;0.57;;;;;;;-146.42;100.00;61981.06;4993458;28;20292;-65
2024/01/17 04:21:56;;;;;;;0.50;0.50;;;;;;;-146.42;100.00;61981.06;4993605;28;20177;-64
2024/01/17 04:24:23;;;;;;;1.57;1.53;;;;;;;-146.42;100.00;61981.06;4993533;28;20996;-64
2024/01/17 04:26:48;;;;;;;0.50;0.50;;;;;;;-146.42;100.00;61981.06;4993583;28;20181;-65
2024/01/17 04:29:14;;;;;;;0.60;0.60;;;;;;;-146.42;100.00;61981.06;4993294;28;20215;-64
2024/01/17 04:31:39;;;;;;;4.53;1.80;;;;;;;-146.42;100.00;61981.06;4993235;28;20260;-64
2024/01/17 04:34:05;;;;;;;0.50;0.50;;;;;;;-146.42;100.00;61981.06;4993199;28;20607;-64
2024/01/17 04:36:30;;;;;;;1.23;1.23;;;;;;;-146.42;100.00;61981.06;4993148;28;20201;-65
2024/01/17 04:38:56;;;;;;;0.90;0.90;;;;;;;-146.42;100.00;61981.06;4993084;28;20276;-65
2024/01/17 04:41:22;;;;;;;1.33;1.33;;;;;;;-146.42;100.00;61981.06;4993005;28;20185;-64
2024/01/17 04:43:48;;;;;;;2.10;2.00;;;;;;;-146.42;100.00;61981.06;4992834;28;20239;-65
2024/01/17 04:46:15;;;;;;;0.70;0.70;;;;;;;-146.42;100.00;61981.06;4993038;28;20169;-65
2024/01/17 04:48:45;;;;;;;0.60;0.60;;;;;;;-146.42;100.00;61981.06;4992874;28;20223;-65
2024/01/17 04:51:11;;;;;;;0.50;0.50;;;;;;;-146.42;100.00;61981.06;4992817;28;20239;-65
2024/01/17 04:53:37;;;;;;;0.80;0.80;;;;;;;-146.42;100.00;61981.06;4992851;28;20176;-66
2024/01/17 04:56:05;;;;;;;0.90;0.90;;;;;;;-146.42;100.00;61981.06;4992721;28;20195;-66
2024/01/17 04:58:33;;;;;;;0.60;0.60;;;;;;;-146.42;100.00;61981.06;4992519;28;20229;-65
2024/01/17 05:00:59;;;;;;;0.63;0.63;;;;;;;-146.42;100.00;61981.06;4992483;28;20181;-65
2024/01/17 05:03:25;;;;;;;2.67;2.57;;;;;;;-146.42;100.00;61981.06;4989413;28;20183;-65
2024/01/17 05:05:51;;;;;;;3.73;2.60;;;;;;;-146.42;100.00;61981.06;4953770;28;20207;-66
2024/01/17 05:08:16;;;;;;;1.33;1.33;;;;;;;-146.42;100.00;61981.06;4953712;28;20174;-66
2024/01/17 05:10:43;;;;;;;1.63;1.63;;;;;;;-146.42;100.00;61981.06;4953727;28;20178;-64
2024/01/17 05:13:09;;;;;;;1.80;1.80;;;;;;;-146.42;100.00;61981.06;4953721;28;20209;-65
2024/01/17 05:15:35;;;;;;;3.70;3.00;;;;;;;-146.42;100.00;61981.06;4953663;28;20171;-64
2024/01/17 05:18:00;;;;;;;2.30;2.00;;;;;;;-146.42;100.00;61981.06;4953615;28;20644;-64
2024/01/17 05:20:26;;;;;;;0.60;0.60;;;;;;;-146.42;100.00;61981.06;4953657;28;20206;-64
2024/01/17 05:22:51;;;;;;;4.10;1.70;;;;;;;-146.42;100.00;61981.06;4952784;28;20193;-64
2024/01/17 05:25:17;;;;;;;1.10;1.10;;;;;;;-146.42;100.00;61981.06;4953411;28;20214;-64
2024/01/17 05:27:50;;;;;;;0.67;0.67;;;;;;;-146.42;100.00;61981.06;4952413;29;21012;-64
2024/01/17 05:30:15;;;;;;;0.80;0.80;;;;;;;-146.42;100.00;61981.06;4953520;28;20270;-64
2024/01/17 05:32:41;;;;;;;1.53;1.53;;;;;;;-146.42;100.00;61981.06;4953493;28;20732;-65
2024/01/17 05:35:07;;;;;;;0.50;0.50;;;;;;;-146.42;100.00;61981.06;4953404;28;20170;-65
2024/01/17 05:37:32;;;;;;;0.60;0.60;;;;;;;-146.42;100.00;61981.06;4953455;28;20266;-65
2024/01/17 05:39:58;;;;;;;4.10;3.80;;;;;;;-146.42;100.00;61981.06;4953407;28;20190;-64
2024/01/17 05:42:23;;;;;;;0.83;0.83;;;;;;;-146.42;100.00;61981.06;4953185;28;20257;-64
2024/01/17 05:44:49;;;;;;;8.43;2.77;;;;;;;-146.42;100.00;61981.06;4952987;28;20202;-64
2024/01/17 05:47:14;;;;;;;2.30;2.20;;;;;;;-146.42;100.00;61981.06;4953139;28;20194;-65
2024/01/17 05:49:40;;;;;;;2.83;2.73;;;;;;;-146.42;100.00;61981.06;4952947;28;20178;-66
2024/01/17 05:52:05;;;;;;;0.77;0.77;;;;;;;-146.42;100.00;61981.06;4953089;28;20174;-64
2024/01/17 05:54:31;;;;;;;1.57;1.57;;;;;;;-146.42;100.00;61981.06;4952956;28;20185;-66
2024/01/17 05:56:56;;;;;;;0.50;0.50;;;;;;;-146.42;100.00;61981.06;4952807;28;20716;-66
2024/01/17 05:59:22;;;;;;;1.00;1.00;;;;;;;-146.42;100.00;61981.06;4952864;28;20241;-65
2024/01/17 06:01:47;;;;;;;2.33;2.20;;;;;;;-146.42;100.00;61981.06;4952110;28;20178;-65
2024/01/17 06:04:13;;;;;;;0.80;0.80;;;;;;;-146.42;100.00;61981.06;4951686;28;20693;-65
2024/01/17 06:06:38;;;;;;;1.10;1.10;;;;;;;-146.42;100.00;61981.06;4951859;28;20190;-65
2024/01/17 06:09:05;;;;;;;2.60;2.40;;;;;;;-146.42;100.00;61981.06;4951988;28;20281;-65
2024/01/17 06:11:30;;;;;;;0.60;0.60;;;;;;;-146.42;100.00;61981.06;4950762;29;20574;-65
2024/01/17 06:13:56;;;;;;;0.70;0.70;;;;;;;-146.42;100.00;61981.06;4952469;28;20181;-66
2024/01/17 06:16:22;;;;;;;0.90;0.90;;;;;;;-146.42;100.00;61981.06;4952749;28;20185;-66
2024/01/17 06:18:47;;;;;;;0.50;0.50;;;;;;;-146.42;100.00;61981.06;4951481;29;20179;-65
2024/01/17 06:21:13;;;;;;;1.87;1.77;;;;;;;-146.42;100.00;61981.06;4952638;28;20181;-66
2024/01/17 06:23:38;;;;;;;0.60;0.60;;;;;;;-146.42;100.00;61981.06;4952666;28;20177;-66
2024/01/17 06:26:04;;;;;;;1.80;1.63;;;;;;;-146.42;100.00;61981.06;4952424;28;20217;-66
2024/01/17 06:28:29;;;;;;;0.77;0.77;;;;;;;-146.42;100.00;61981.06;4952468;28;20638;-66
2024/01/17 06:30:55;;;;;;;1.40;1.33;;;;;;;-146.42;100.00;61981.06;4952416;28;20182;-66
2024/01/17 06:33:20;;;;;;;0.60;0.60;;;;;;;-146.42;100.00;61981.06;4952484;28;20848;-66
2024/01/17 06:35:49;;;;;;;1.60;1.60;;;;;;;-146.42;100.00;61981.06;4952318;28;20170;-66
2024/01/17 06:38:14;;;;;;;0.50;0.50;;;;;;;-146.42;100.00;61981.06;4952465;28;20571;-66
2024/01/17 06:40:40;;;;;;;4.20;3.90;;;;;;;-146.42;100.00;61981.06;4952450;28;20182;-66
2024/01/17 06:43:06;;;;;;;0.50;0.50;;;;;;;-146.42;100.00;61981.06;4963931;28;20575;-66
2024/01/17 06:45:31;;;;;;;13.77;6.20;;;;;;;-146.42;100.00;61981.06;4990981;28;20284;-66
2024/01/17 06:47:59;;;;;;;0.40;0.40;;;;;;;-146.42;100.00;61981.06;4991139;28;20181;-67
2024/01/17 06:50:24;;;;;;;1.50;1.23;;;;;;;-146.42;100.00;61981.06;4990982;28;20183;-67
2024/01/17 06:52:50;;;;;;;2.40;2.30;;;;;;;-146.42;100.00;61981.06;4991182;28;20259;-67
2024/01/17 06:55:15;;;;;;;8.33;7.77;;;;;;;-146.42;100.00;61981.06;4990966;28;20181;-67
2024/01/17 06:57:41;;;;;;;2.70;2.60;;;;;;;-146.42;100.00;61981.06;4990881;28;20224;-67
2024/01/17 07:00:07;;;;;;;3.70;3.43;;;;;;;-146.42;100.00;61981.06;4991060;28;20566;-66
2024/01/17 07:02:33;;;;;;;2.50;2.40;;;;;;;-146.42;100.00;61981.06;4990982;28;20184;-66
2024/01/17 07:04:58;;;;;;;2.47;2.27;;;;;;;-146.42;100.00;61981.06;4990887;28;20201;-66
2024/01/17 07:07:23;;;;;;;1.17;1.17;;;;;;;-146.42;100.00;61981.06;4990785;28;20208;-66
2024/01/17 07:09:49;;;;;;;5.40;5.00;;;;;;;-146.42;100.00;61981.06;4990750;28;20223;-66
2024/01/17 07:12:14;;;;;;;1.33;1.33;;;;;;;-146.42;100.00;61981.06;4990811;28;20184;-66
2024/01/17 07:14:40;;;;;;;0.60;0.60;;;;;;;-146.42;100.00;61981.06;4990776;28;20228;-66
2024/01/17 07:17:06;;;;;;;1.93;1.90;;;;;;;-146.42;100.00;61981.06;4990776;28;20604;-66
2024/01/17 07:19:36;;;;;;;0.87;0.87;;;;;;;-146.42;100.00;61981.06;4990696;28;20223;-66
2024/01/17 07:22:02;;;;;;;1.60;1.60;;;;;;;-146.42;100.00;61981.06;4990629;28;20169;-66
2024/01/17 07:24:28;;;;;;;15.97;9.67;;;;;;;-146.42;100.00;61981.06;4990604;28;20276;-66
2024/01/17 07:26:53;;;;;;;3.73;3.53;;;;;;;-146.42;100.00;61981.06;4990606;28;20622;-66
2024/01/17 07:29:19;;;;;;;4.13;3.20;;;;;;;-146.42;100.00;61981.06;4990669;28;20192;-66
2024/01/17 07:31:44;;;;;;;1.43;1.43;;;;;;;-146.42;100.00;61981.06;4990670;28;20181;-66
2024/01/17 07:34:10;;;;;;;2.83;1.87;;;;;;;-146.42;100.00;61981.06;4990688;28;20647;-67
2024/01/17 07:36:35;;;;;;;0.50;0.50;;;;;;;-146.42;100.00;61981.06;4990587;28;20536;-67
2024/01/17 07:39:00;;;;;;;1.00;1.00;;;;;;;-146.42;100.00;61981.06;4990514;28;20184;-66
2024/01/17 07:41:26;;;;;;;10.60;2.00;;;;;;;-146.42;100.00;61981.06;4990639;28;20211;-66
2024/01/17 07:43:52;;;;;;;0.60;0.60;;;;;;;-146.42;100.00;61981.06;4990684;28;20196;-66
2024/01/17 07:46:18;;;;;;;0.40;0.40;;;;;;;-146.42;100.00;61981.06;4991115;28;20546;-66
2024/01/17 07:48:43;;;;;;;1.13;1.13;;;;;;;-146.42;100.00;61981.06;4993934;28;20237;-68
2024/01/17 07:51:09;;;;;;;0.50;0.50;;;;;;;-146.42;100.00;61981.06;4993917;28;20185;-67
2024/01/17 07:53:35;;;;;;;1.33;1.33;;;;;;;-146.42;100.00;61981.06;4993778;28;20187;-66
2024/01/17 07:56:01;;;;;;;0.40;0.40;;;;;;;-146.42;100.00;61981.06;4993706;28;20169;-67
2024/01/17 07:58:26;;;;;;;0.50;0.50;;;;;;;-146.42;100.00;61981.06;4993560;28;20585;-66
2024/01/17 08:00:53;;;;;;;0.50;0.50;;;;;;;-146.42;100.00;61981.06;4993670;28;20177;-66
2024/01/17 08:03:19;;;;;;;0.40;0.40;;;;;;;-146.42;100.00;61981.06;4993784;28;20195;-66
2024/01/17 08:05:44;;;;;;;0.40;0.40;;;;;;;-146.42;100.00;61981.06;4980620;28;20285;-65
2024/01/17 08:08:11;;;;;;;1.60;1.60;;;;;;;-146.42;100.00;61981.06;4974107;28;20174;-66
2024/01/17 08:10:37;;;;;;;0.43;0.43;;;;;;;-146.42;100.00;61981.06;4974155;28;20625;-66
2024/01/17 08:13:04;;;;;;;0.50;0.50;;;;;;;-146.42;100.00;61981.06;4974113;28;20169;-66
2024/01/17 08:15:31;;;;;;;0.60;0.60;;;;;;;-146.42;100.00;61981.06;4973989;28;20687;-66
2024/01/17 08:17:56;;;;;;;3.13;3.03;;;;;;;-146.42;100.00;61981.06;4974082;28;20253;-65
2024/01/17 08:20:22;;;;;;;0.40;0.40;;;;;;;-146.42;100.00;61981.06;4956658;28;20268;-66
2024/01/17 08:22:47;;;;;;;0.40;0.40;;;;;;;-146.42;100.00;61981.06;4974066;28;20178;-65
2024/01/17 08:25:13;;;;;;;0.70;0.70;;;;;;;-146.42;100.00;61981.06;4973850;28;20201;-65
2024/01/17 08:27:39;;;;;;;0.50;0.50;;;;;;;-146.42;100.00;61981.06;4973911;28;20659;-65
2024/01/17 08:30:09;;;;;;;1.83;1.83;;;;;;;-146.42;100.00;61981.06;4974162;28;20190;-66
2024/01/17 08:32:35;;;;;;;0.50;0.50;;;;;;;-146.42;100.00;61981.06;4973925;28;20176;-64
2024/01/17 08:35:00;;;;;;;0.50;0.50;;;;;;;-146.42;100.00;61981.06;4973718;28;20170;-65
2024/01/17 08:37:26;;;;;;;1.13;1.13;;;;;;;-146.42;100.00;61981.06;4973801;28;20281;-65
2024/01/17 08:39:51;;;;;;;1.13;1.00;;;;;;;-146.42;100.00;61981.06;4973728;28;20182;-66
2024/01/17 08:42:17;;;;;;;0.60;0.60;;;;;;;-146.42;100.00;61981.06;4973534;28;20177;-65
2024/01/17 08:44:43;;;;;;;0.40;0.40;;;;;;;-146.42;100.00;61981.06;4973478;28;20255;-65
2024/01/17 08:47:08;;;;;;;5.03;4.73;;;;;;;-146.42;100.00;61981.06;4973546;28;20182;-65
2024/01/17 08:49:39;;;;;;;8.80;4.80;;;;;;;-146.42;100.00;61981.06;4973451;28;20197;-65
2024/01/17 08:52:05;;;;;;;0.40;0.40;;;;;;;-146.42;100.00;61981.06;4965627;28;20601;-65
2024/01/17 08:54:30;;;;;;;0.40;0.40;;;;;;;-146.42;100.00;61981.06;4972349;28;20216;-65
2024/01/17 08:56:56;;;;;;;0.63;0.63;;;;;;;-146.42;100.00;61981.06;4972228;28;20279;-65
2024/01/17 08:59:21;;;;;;;3.50;2.53;;;;;;;-146.42;100.00;61981.06;4970621;28;20644;-65
2024/01/17 09:01:47;;;;;;;2.30;2.10;;;;;;;-146.42;100.00;61981.06;4972406;28;20173;-66
2024/01/17 09:04:12;;;;;;;0.50;0.50;;;;;;;-146.42;100.00;61981.06;4972030;28;20262;-65
2024/01/17 09:06:38;;;;;;;1.47;1.47;;;;;;;-146.42;100.00;61981.06;4971497;28;20205;-65
2024/01/17 09:09:03;;;;;;;1.00;1.00;;;;;;;-146.42;100.00;61981.06;4972242;28;20699;-64
2024/01/17 09:11:29;;;;;;;1.90;1.80;;;;;;;-146.42;100.00;61981.06;4971972;28;20186;-65
2024/01/17 09:13:55;;;;;;;0.50;0.50;;;;;;;-146.42;100.00;61981.06;4971420;28;20205;-65
2024/01/17 09:16:22;;;;;;;0.80;0.80;;;;;;;-146.42;100.00;61981.06;4971985;28;20615;-65
2024/01/17 09:18:47;;;;;;;0.60;0.60;;;;;;;-146.42;100.00;61981.06;4972054;28;20188;-66
2024/01/17 09:21:13;;;;;;;0.77;0.77;;;;;;;-146.42;100.00;61981.06;4971295;28;20177;-66
2024/01/17 09:23:38;;;;;;;0.50;0.50;;;;;;;-146.42;100.00;61981.06;4971905;28;20173;-65
2024/01/17 09:26:04;;;;;;;0.60;0.60;;;;;;;-146.42;100.00;61981.06;4971643;28;20739;-66
2024/01/17 09:28:29;;;;;;;2.30;2.20;;;;;;;-146.42;100.00;61981.06;4971115;28;20624;-67
2024/01/17 09:30:55;;;;;;;0.40;0.40;;;;;;;-146.42;100.00;61981.06;4971876;28;20174;-64
2024/01/17 09:33:20;;;;;;;0.50;0.50;;;;;;;-146.42;100.00;61981.06;4972604;28;20169;-64
2024/01/17 09:35:48;;;;;;;4.73;1.87;;;;;;;-146.42;100.00;61981.06;4972543;28;20182;-64
2024/01/17 09:38:14;;;;;;;0.40;0.40;;;;;;;-146.42;100.00;61981.06;4972337;28;20205;-64
2024/01/17 09:40:39;;;;;;;0.50;0.50;;;;;;;-146.42;100.00;61981.06;4972247;28;20174;-64
2024/01/17 09:43:06;;;;;;;1.50;1.47;;;;;;;-146.42;100.00;61981.06;4972244;28;20771;-64
2024/01/17 09:45:33;;;;;;;0.40;0.40;;;;;;;-146.42;100.00;61981.06;4972179;28;20201;-64
2024/01/17 09:48:00;;;;;;;0.40;0.40;;;;;;;-146.42;100.00;61981.06;4972285;28;20190;-64
2024/01/17 09:50:26;;;;;;;0.97;0.97;;;;;;;-146.42;100.00;61981.06;4972389;28;20546;-64
2024/01/17 09:52:54;;;;;;;0.40;0.40;;;;;;;-146.42;100.00;61981.06;4972215;28;20178;-64
2024/01/17 09:55:21;;;;;;;0.40;0.40;;;;;;;-146.42;100.00;61981.06;4972285;28;20175;-64
2024/01/17 09:57:54;;;;;;;0.50;0.50;;;;;;;-146.42;100.00;61981.06;4971632;28;20226;-64
2024/01/17 10:00:20;;;;;;;0.40;0.40;;;;;;;-146.42;100.00;61981.06;4972153;28;20208;-64
2024/01/17 10:02:48;;;;;;;0.80;0.80;;;;;;;-146.42;100.00;61981.06;4971843;28;20188;-64
2024/01/17 10:05:16;;;;;;;0.40;0.40;;;;;;;-146.42;100.00;61981.06;4954670;28;20264;-64
2024/01/17 10:07:41;;;;;;;2.97;2.87;;;;;;;-146.42;100.00;61981.06;4972087;28;20184;-65
2024/01/17 10:10:09;;;;;;;0.50;0.50;;;;;;;-146.42;100.00;61981.06;4971698;28;20170;-65
2024/01/17 10:12:34;;;;;;;0.40;0.40;;;;;;;-146.42;100.00;61981.06;4972056;28;20651;-64
2024/01/17 10:15:06;;;;;;;0.40;0.40;;;;;;;-146.42;100.00;61981.06;4971914;28;20174;-65
2024/01/17 10:17:35;;;;;;;0.40;0.40;;;;;;;-146.42;100.00;61981.06;4972101;28;20237;-64
2024/01/17 10:20:01;;;;;;;44.13;25.37;;;;;;;-146.42;100.00;61981.06;4971990;28;20257;-65
2024/01/17 10:22:26;;;;;;;1.97;1.70;;;;;;;-146.42;100.00;61981.06;4971908;28;20264;-65
2024/01/17 10:24:52;;;;;;;3.23;3.07;;;;;;;-146.42;100.00;61981.06;4972084;28;20197;-64
2024/01/17 10:27:18;;;;;;;0.50;0.50;;;;;;;-146.42;100.00;61981.06;4971925;28;20173;-65
2024/01/17 10:29:43;;;;;;;0.50;0.50;;;;;;;-146.42;100.00;61981.06;4971763;28;20177;-64
2024/01/17 10:32:09;;;;;;;2.43;1.73;;;;;;;-146.42;100.00;61981.06;4971788;28;20182;-65
2024/01/17 10:34:37;;;;;;;1.83;1.77;;;;;;;-146.42;100.00;61981.06;4954442;28;20181;-64
2024/01/17 10:37:04;;;;;;;14.73;8.43;;;;;;;-146.42;100.00;61981.06;4971745;28;20658;-64
2024/01/17 10:39:29;;;;;;;0.63;0.63;;;;;;;-146.42;100.00;61981.06;4971714;28;20205;-64
2024/01/17 10:41:56;;;;;;;7.13;4.07;;;;;;;-146.42;100.00;61981.06;4971691;28;20308;-64
2024/01/17 10:44:22;;;;;;;0.80;0.80;;;;;;;-146.42;100.00;61981.06;4970466;28;20649;-64
2024/01/17 10:46:52;;;;;;;1.83;1.73;;;;;;;-146.42;100.00;61981.06;4969804;28;20176;-64
2024/01/17 10:49:18;;;;;;;0.83;0.83;;;;;;;-146.42;100.00;61981.06;4970513;28;20253;-65
2024/01/17 10:52:14;;;;;;;0.63;0.63;;;;;;;-146.42;100.00;61981.06;4970425;28;20252;-64
2024/01/17 10:54:42;;;;;;;0.70;0.70;;;;;;;-146.42;100.00;61981.06;4968551;28;20194;-64
2024/01/17 10:57:10;;;;;;;0.80;0.80;;;;;;;-146.42;100.00;61981.06;4970407;28;20707;-65
2024/01/17 10:59:41;;;;;;;8.10;2.83;;;;;;;-146.42;100.00;61981.06;4953922;28;20186;-65
2024/01/17 11:02:21;;;;;;;0.40;0.40;;;;;;;-146.42;100.00;61981.06;4971535;28;20178;-65
2024/01/17 11:05:05;;;;;;;0.40;0.40;;;;;;;-146.42;100.00;61981.06;4971455;28;20205;-65